sensor_id;sensor_type;location;lat;lon;timestamp;P1;durP1;ratioP1;P2;durP2;ratioP2
2488;SDS011;1255;48.716;9.124;2022-09-14T00:01:20;2.17;;;2.00;;
2488;SDS011;1255;48.716;9.124;2022-09-14T00:03:50;2.03;;;1.83;;
2488;SDS011;1255;48.716;9.124;2022-09-14T00:06:17;2.70;;;2.40;;
2488;SDS011;1255;48.716;9.124;2022-09-14T00:08:44;2.13;;;1.93;;
2488;SDS011;1255;48.716;9.124;2022-09-14T00:11:14;3.90;;;1.90;;
2488;SDS011;1255;48.716;9.124;2022-09-14T00:13:43;2.30;;;1.83;;
2488;SDS011;1255;48.716;9.124;2022-09-14T00:16:12;2.90;;;1.93;;
2488;SDS011;1255;48.716;9.124;2022-09-14T00:18:42;1.93;;;1.70;;
2488;SDS011;1255;48.716;9.124;2022-09-14T00:21:10;2.10;;;1.93;;
2488;SDS011;1255;48.716;9.124;2022-09-14T00:23:38;3.10;;;2.30;;
2488;SDS011;1255;48.716;9.124;2022-09-14T00:26:07;1.77;;;1.67;;
2488;SDS011;1255;48.716;9.124;2022-09-14T00:28:36;2.03;;;1.83;;
2488;SDS011;1255;48.716;9.124;2022-09-14T00:31:05;2.60;;;1.57;;
2488;SDS011;1255;48.716;9.124;2022-09-14T00:33:32;2.37;;;2.17;;
2488;SDS011;1255;48.716;9.124;2022-09-14T00:36:04;4.33;;;1.90;;
2488;SDS011;1255;48.716;9.124;2022-09-14T00:38:32;2.63;;;2.27;;
2488;SDS011;1255;48.716;9.124;2022-09-14T00:41:00;2.23;;;2.03;;
2488;SDS011;1255;48.716;9.124;2022-09-14T00:43:27;2.27;;;2.07;;
2488;SDS011;1255;48.716;9.124;2022-09-14T00:45:54;2.50;;;2.30;;
2488;SDS011;1255;48.716;9.124;2022-09-14T00:48:23;2.20;;;1.87;;
2488;SDS011;1255;48.716;9.124;2022-09-14T00:50:51;1.97;;;1.77;;
2488;SDS011;1255;48.716;9.124;2022-09-14T00:53:18;1.73;;;1.57;;
2488;SDS011;1255;48.716;9.124;2022-09-14T00:55:45;2.10;;;1.90;;
2488;SDS011;1255;48.716;9.124;2022-09-14T00:58:12;2.27;;;1.80;;
2488;SDS011;1255;48.716;9.124;2022-09-14T01:00:39;2.20;;;2.00;;
2488;SDS011;1255;48.716;9.124;2022-09-14T01:03:06;2.43;;;2.23;;
2488;SDS011;1255;48.716;9.124;2022-09-14T01:05:38;2.20;;;2.00;;
2488;SDS011;1255;48.716;9.124;2022-09-14T01:08:19;2.40;;;1.90;;
2488;SDS011;1255;48.716;9.124;2022-09-14T01:10:58;2.83;;;2.17;;
2488;SDS011;1255;48.716;9.124;2022-09-14T01:13:33;2.27;;;2.07;;
2488;SDS011;1255;48.716;9.124;2022-09-14T01:16:08;3.10;;;2.20;;
2488;SDS011;1255;48.716;9.124;2022-09-14T01:18:43;2.67;;;1.93;;
2488;SDS011;1255;48.716;9.124;2022-09-14T01:21:13;2.23;;;1.80;;
2488;SDS011;1255;48.716;9.124;2022-09-14T01:23:49;3.10;;;2.57;;
2488;SDS011;1255;48.716;9.124;2022-09-14T01:26:50;4.30;;;1.80;;
2488;SDS011;1255;48.716;9.124;2022-09-14T01:29:37;2.20;;;2.00;;
2488;SDS011;1255;48.716;9.124;2022-09-14T01:32:09;1.87;;;1.53;;
2488;SDS011;1255;48.716;9.124;2022-09-14T01:34:41;2.80;;;1.63;;
2488;SDS011;1255;48.716;9.124;2022-09-14T01:37:12;2.03;;;1.73;;
2488;SDS011;1255;48.716;9.124;2022-09-14T01:39:45;3.60;;;1.93;;
2488;SDS011;1255;48.716;9.124;2022-09-14T01:42:16;1.70;;;1.40;;
2488;SDS011;1255;48.716;9.124;2022-09-14T01:44:47;2.53;;;2.00;;
2488;SDS011;1255;48.716;9.124;2022-09-14T01:47:23;2.80;;;2.27;;
2488;SDS011;1255;48.716;9.124;2022-09-14T01:49:56;2.50;;;2.00;;
2488;SDS011;1255;48.716;9.124;2022-09-14T01:52:29;2.43;;;2.20;;
2488;SDS011;1255;48.716;9.124;2022-09-14T01:54:59;3.50;;;2.13;;
2488;SDS011;1255;48.716;9.124;2022-09-14T01:57:33;6.00;;;2.60;;
2488;SDS011;1255;48.716;9.124;2022-09-14T02:00:05;2.43;;;2.23;;
2488;SDS011;1255;48.716;9.124;2022-09-14T02:02:36;3.00;;;2.10;;
2488;SDS011;1255;48.716;9.124;2022-09-14T02:05:06;3.30;;;3.00;;
2488;SDS011;1255;48.716;9.124;2022-09-14T02:07:35;2.73;;;2.33;;
2488;SDS011;1255;48.716;9.124;2022-09-14T02:10:03;2.73;;;2.53;;
2488;SDS011;1255;48.716;9.124;2022-09-14T02:12:34;3.23;;;2.17;;
2488;SDS011;1255;48.716;9.124;2022-09-14T02:15:02;4.07;;;2.73;;
2488;SDS011;1255;48.716;9.124;2022-09-14T02:17:30;2.50;;;2.30;;
2488;SDS011;1255;48.716;9.124;2022-09-14T02:19:57;3.70;;;2.47;;
2488;SDS011;1255;48.716;9.124;2022-09-14T02:22:27;2.90;;;2.20;;
2488;SDS011;1255;48.716;9.124;2022-09-14T02:24:55;2.50;;;2.30;;
2488;SDS011;1255;48.716;9.124;2022-09-14T02:27:22;4.60;;;2.50;;
2488;SDS011;1255;48.716;9.124;2022-09-14T02:29:51;3.47;;;2.37;;
2488;SDS011;1255;48.716;9.124;2022-09-14T02:32:20;3.20;;;2.20;;
2488;SDS011;1255;48.716;9.124;2022-09-14T02:34:54;2.40;;;2.20;;
2488;SDS011;1255;48.716;9.124;2022-09-14T02:37:29;2.83;;;2.57;;
2488;SDS011;1255;48.716;9.124;2022-09-14T02:40:06;3.10;;;2.47;;
2488;SDS011;1255;48.716;9.124;2022-09-14T02:42:50;2.70;;;2.50;;
2488;SDS011;1255;48.716;9.124;2022-09-14T02:45:27;3.13;;;2.37;;
2488;SDS011;1255;48.716;9.124;2022-09-14T02:48:01;3.77;;;2.37;;
2488;SDS011;1255;48.716;9.124;2022-09-14T02:50:33;2.70;;;2.47;;
2488;SDS011;1255;48.716;9.124;2022-09-14T02:53:07;2.77;;;2.57;;
2488;SDS011;1255;48.716;9.124;2022-09-14T02:55:40;3.37;;;2.80;;
2488;SDS011;1255;48.716;9.124;2022-09-14T02:58:11;5.93;;;2.40;;
2488;SDS011;1255;48.716;9.124;2022-09-14T03:00:42;2.70;;;2.30;;
2488;SDS011;1255;48.716;9.124;2022-09-14T03:03:11;3.07;;;2.87;;
2488;SDS011;1255;48.716;9.124;2022-09-14T03:05:40;2.70;;;2.50;;
2488;SDS011;1255;48.716;9.124;2022-09-14T03:08:08;2.70;;;2.50;;
2488;SDS011;1255;48.716;9.124;2022-09-14T03:10:35;2.70;;;2.50;;
2488;SDS011;1255;48.716;9.124;2022-09-14T03:13:03;3.03;;;2.57;;
2488;SDS011;1255;48.716;9.124;2022-09-14T03:15:29;3.27;;;2.77;;
2488;SDS011;1255;48.716;9.124;2022-09-14T03:17:57;4.13;;;2.63;;
2488;SDS011;1255;48.716;9.124;2022-09-14T03:20:25;2.97;;;2.67;;
2488;SDS011;1255;48.716;9.124;2022-09-14T03:22:53;3.23;;;2.87;;
2488;SDS011;1255;48.716;9.124;2022-09-14T03:25:20;3.10;;;2.80;;
2488;SDS011;1255;48.716;9.124;2022-09-14T03:27:48;2.80;;;2.30;;
2488;SDS011;1255;48.716;9.124;2022-09-14T03:30:15;3.27;;;2.70;;
2488;SDS011;1255;48.716;9.124;2022-09-14T03:32:42;4.97;;;4.43;;
2488;SDS011;1255;48.716;9.124;2022-09-14T03:35:11;3.30;;;3.00;;
2488;SDS011;1255;48.716;9.124;2022-09-14T03:37:38;2.60;;;2.40;;
2488;SDS011;1255;48.716;9.124;2022-09-14T03:40:06;2.90;;;2.60;;
2488;SDS011;1255;48.716;9.124;2022-09-14T03:42:33;2.70;;;2.50;;
2488;SDS011;1255;48.716;9.124;2022-09-14T03:45:00;2.77;;;2.57;;
2488;SDS011;1255;48.716;9.124;2022-09-14T03:47:28;3.40;;;3.10;;
2488;SDS011;1255;48.716;9.124;2022-09-14T03:49:55;6.73;;;2.87;;
2488;SDS011;1255;48.716;9.124;2022-09-14T03:52:23;3.20;;;2.90;;
2488;SDS011;1255;48.716;9.124;2022-09-14T03:54:50;3.87;;;2.80;;
2488;SDS011;1255;48.716;9.124;2022-09-14T03:57:16;3.70;;;3.40;;
2488;SDS011;1255;48.716;9.124;2022-09-14T03:59:43;3.03;;;2.67;;
2488;SDS011;1255;48.716;9.124;2022-09-14T04:02:10;6.30;;;3.47;;
2488;SDS011;1255;48.716;9.124;2022-09-14T04:04:37;3.83;;;3.03;;
2488;SDS011;1255;48.716;9.124;2022-09-14T04:07:04;2.83;;;2.60;;
2488;SDS011;1255;48.716;9.124;2022-09-14T04:09:32;3.53;;;2.90;;
2488;SDS011;1255;48.716;9.124;2022-09-14T04:11:59;3.13;;;2.63;;
2488;SDS011;1255;48.716;9.124;2022-09-14T04:14:26;3.60;;;2.90;;
2488;SDS011;1255;48.716;9.124;2022-09-14T04:16:52;3.23;;;2.37;;
2488;SDS011;1255;48.716;9.124;2022-09-14T04:19:19;4.03;;;2.87;;
2488;SDS011;1255;48.716;9.124;2022-09-14T04:21:46;2.63;;;2.30;;
2488;SDS011;1255;48.716;9.124;2022-09-14T04:24:12;3.50;;;2.83;;
2488;SDS011;1255;48.716;9.124;2022-09-14T04:26:41;3.10;;;2.67;;
2488;SDS011;1255;48.716;9.124;2022-09-14T04:29:08;3.50;;;3.20;;
2488;SDS011;1255;48.716;9.124;2022-09-14T04:31:36;2.60;;;2.40;;
2488;SDS011;1255;48.716;9.124;2022-09-14T04:34:03;2.93;;;2.60;;
2488;SDS011;1255;48.716;9.124;2022-09-14T04:36:30;3.90;;;3.20;;
2488;SDS011;1255;48.716;9.124;2022-09-14T04:38:57;3.80;;;2.60;;
2488;SDS011;1255;48.716;9.124;2022-09-14T04:41:25;3.10;;;2.73;;
2488;SDS011;1255;48.716;9.124;2022-09-14T04:43:54;2.77;;;2.47;;
2488;SDS011;1255;48.716;9.124;2022-09-14T04:46:23;3.43;;;2.70;;
2488;SDS011;1255;48.716;9.124;2022-09-14T04:48:51;3.17;;;2.97;;
2488;SDS011;1255;48.716;9.124;2022-09-14T04:51:19;3.23;;;3.00;;
2488;SDS011;1255;48.716;9.124;2022-09-14T04:53:47;3.23;;;2.93;;
2488;SDS011;1255;48.716;9.124;2022-09-14T04:56:15;3.23;;;2.93;;
2488;SDS011;1255;48.716;9.124;2022-09-14T04:58:44;2.40;;;2.20;;
2488;SDS011;1255;48.716;9.124;2022-09-14T05:01:14;2.70;;;2.50;;
2488;SDS011;1255;48.716;9.124;2022-09-14T05:03:42;2.77;;;2.57;;
2488;SDS011;1255;48.716;9.124;2022-09-14T05:06:10;3.23;;;2.90;;
2488;SDS011;1255;48.716;9.124;2022-09-14T05:08:38;3.43;;;3.10;;
2488;SDS011;1255;48.716;9.124;2022-09-14T05:11:06;3.47;;;3.17;;
2488;SDS011;1255;48.716;9.124;2022-09-14T05:13:34;4.83;;;2.70;;
2488;SDS011;1255;48.716;9.124;2022-09-14T05:16:05;4.10;;;3.70;;
2488;SDS011;1255;48.716;9.124;2022-09-14T05:18:33;3.43;;;3.13;;
2488;SDS011;1255;48.716;9.124;2022-09-14T05:21:01;3.60;;;3.20;;
2488;SDS011;1255;48.716;9.124;2022-09-14T05:23:28;3.93;;;3.30;;
2488;SDS011;1255;48.716;9.124;2022-09-14T05:25:54;3.80;;;3.50;;
2488;SDS011;1255;48.716;9.124;2022-09-14T05:28:21;3.60;;;3.30;;
2488;SDS011;1255;48.716;9.124;2022-09-14T05:30:48;3.53;;;3.10;;
2488;SDS011;1255;48.716;9.124;2022-09-14T05:33:15;4.20;;;3.80;;
2488;SDS011;1255;48.716;9.124;2022-09-14T05:35:43;4.00;;;3.57;;
2488;SDS011;1255;48.716;9.124;2022-09-14T05:38:10;3.80;;;3.50;;
2488;SDS011;1255;48.716;9.124;2022-09-14T05:40:36;4.37;;;3.97;;
2488;SDS011;1255;48.716;9.124;2022-09-14T05:43:03;3.50;;;3.13;;
2488;SDS011;1255;48.716;9.124;2022-09-14T05:45:30;4.07;;;3.67;;
2488;SDS011;1255;48.716;9.124;2022-09-14T05:47:59;3.53;;;3.23;;
2488;SDS011;1255;48.716;9.124;2022-09-14T05:50:28;5.87;;;3.60;;
2488;SDS011;1255;48.716;9.124;2022-09-14T05:52:56;4.27;;;3.87;;
2488;SDS011;1255;48.716;9.124;2022-09-14T05:55:23;3.87;;;3.57;;
2488;SDS011;1255;48.716;9.124;2022-09-14T05:57:50;4.60;;;3.50;;
2488;SDS011;1255;48.716;9.124;2022-09-14T06:00:17;3.10;;;2.90;;
2488;SDS011;1255;48.716;9.124;2022-09-14T06:02:45;5.83;;;3.43;;
2488;SDS011;1255;48.716;9.124;2022-09-14T06:05:13;3.57;;;3.27;;
2488;SDS011;1255;48.716;9.124;2022-09-14T06:07:40;3.73;;;3.43;;
2488;SDS011;1255;48.716;9.124;2022-09-14T06:10:08;4.07;;;3.77;;
2488;SDS011;1255;48.716;9.124;2022-09-14T06:12:36;4.40;;;3.30;;
2488;SDS011;1255;48.716;9.124;2022-09-14T06:15:03;3.73;;;3.43;;
2488;SDS011;1255;48.716;9.124;2022-09-14T06:17:30;7.47;;;3.10;;
2488;SDS011;1255;48.716;9.124;2022-09-14T06:19:57;4.93;;;3.10;;
2488;SDS011;1255;48.716;9.124;2022-09-14T06:22:23;3.53;;;3.23;;
2488;SDS011;1255;48.716;9.124;2022-09-14T06:24:50;3.43;;;3.20;;
2488;SDS011;1255;48.716;9.124;2022-09-14T06:27:20;3.57;;;3.27;;
2488;SDS011;1255;48.716;9.124;2022-09-14T06:29:46;3.50;;;3.20;;
2488;SDS011;1255;48.716;9.124;2022-09-14T06:32:16;3.73;;;3.43;;
2488;SDS011;1255;48.716;9.124;2022-09-14T06:34:42;3.40;;;3.10;;
2488;SDS011;1255;48.716;9.124;2022-09-14T06:37:09;3.40;;;3.10;;
2488;SDS011;1255;48.716;9.124;2022-09-14T06:39:36;4.77;;;3.60;;
2488;SDS011;1255;48.716;9.124;2022-09-14T06:42:03;3.60;;;3.30;;
2488;SDS011;1255;48.716;9.124;2022-09-14T06:44:31;3.30;;;3.00;;
2488;SDS011;1255;48.716;9.124;2022-09-14T06:46:58;4.20;;;3.43;;
2488;SDS011;1255;48.716;9.124;2022-09-14T06:49:25;3.57;;;3.27;;
2488;SDS011;1255;48.716;9.124;2022-09-14T06:51:51;4.50;;;3.40;;
2488;SDS011;1255;48.716;9.124;2022-09-14T06:56:55;3.30;;;2.90;;
2488;SDS011;1255;48.716;9.124;2022-09-14T06:59:22;4.57;;;3.53;;
2488;SDS011;1255;48.716;9.124;2022-09-14T07:01:50;3.37;;;3.10;;
2488;SDS011;1255;48.716;9.124;2022-09-14T07:04:17;3.13;;;2.83;;
2488;SDS011;1255;48.716;9.124;2022-09-14T07:06:44;4.10;;;3.60;;
2488;SDS011;1255;48.716;9.124;2022-09-14T07:09:12;3.00;;;2.67;;
2488;SDS011;1255;48.716;9.124;2022-09-14T07:11:41;3.90;;;3.60;;
2488;SDS011;1255;48.716;9.124;2022-09-14T07:14:08;4.20;;;3.63;;
2488;SDS011;1255;48.716;9.124;2022-09-14T07:16:36;4.20;;;3.80;;
2488;SDS011;1255;48.716;9.124;2022-09-14T07:19:05;3.60;;;3.30;;
2488;SDS011;1255;48.716;9.124;2022-09-14T07:21:34;3.80;;;3.40;;
2488;SDS011;1255;48.716;9.124;2022-09-14T07:24:01;3.20;;;3.00;;
2488;SDS011;1255;48.716;9.124;2022-09-14T07:26:29;3.70;;;3.40;;
2488;SDS011;1255;48.716;9.124;2022-09-14T07:28:58;3.70;;;3.30;;
2488;SDS011;1255;48.716;9.124;2022-09-14T07:31:28;3.03;;;2.83;;
2488;SDS011;1255;48.716;9.124;2022-09-14T07:33:58;3.90;;;3.60;;
2488;SDS011;1255;48.716;9.124;2022-09-14T07:36:29;3.80;;;3.50;;
2488;SDS011;1255;48.716;9.124;2022-09-14T07:38:57;3.47;;;3.17;;
2488;SDS011;1255;48.716;9.124;2022-09-14T07:41:25;3.60;;;2.93;;
2488;SDS011;1255;48.716;9.124;2022-09-14T07:43:54;5.67;;;3.40;;
2488;SDS011;1255;48.716;9.124;2022-09-14T07:46:24;4.40;;;3.43;;
2488;SDS011;1255;48.716;9.124;2022-09-14T07:48:53;3.20;;;2.90;;
2488;SDS011;1255;48.716;9.124;2022-09-14T07:51:21;3.20;;;2.90;;
2488;SDS011;1255;48.716;9.124;2022-09-14T07:53:50;3.90;;;3.60;;
2488;SDS011;1255;48.716;9.124;2022-09-14T07:56:17;3.80;;;3.50;;
2488;SDS011;1255;48.716;9.124;2022-09-14T07:58:45;3.67;;;3.37;;
2488;SDS011;1255;48.716;9.124;2022-09-14T08:01:14;4.03;;;3.60;;
2488;SDS011;1255;48.716;9.124;2022-09-14T08:03:43;3.20;;;2.83;;
2488;SDS011;1255;48.716;9.124;2022-09-14T08:06:13;4.70;;;3.20;;
2488;SDS011;1255;48.716;9.124;2022-09-14T08:08:42;3.30;;;2.90;;
2488;SDS011;1255;48.716;9.124;2022-09-14T08:11:13;3.73;;;2.77;;
2488;SDS011;1255;48.716;9.124;2022-09-14T08:13:41;3.80;;;3.07;;
2488;SDS011;1255;48.716;9.124;2022-09-14T08:16:09;4.50;;;3.03;;
2488;SDS011;1255;48.716;9.124;2022-09-14T08:18:37;3.50;;;3.20;;
2488;SDS011;1255;48.716;9.124;2022-09-14T08:21:05;3.57;;;3.27;;
2488;SDS011;1255;48.716;9.124;2022-09-14T08:23:33;3.20;;;2.83;;
2488;SDS011;1255;48.716;9.124;2022-09-14T08:26:01;3.17;;;2.87;;
2488;SDS011;1255;48.716;9.124;2022-09-14T08:28:30;4.40;;;2.90;;
2488;SDS011;1255;48.716;9.124;2022-09-14T08:31:01;5.00;;;3.37;;
2488;SDS011;1255;48.716;9.124;2022-09-14T08:33:29;2.87;;;2.57;;
2488;SDS011;1255;48.716;9.124;2022-09-14T08:35:57;3.73;;;3.43;;
2488;SDS011;1255;48.716;9.124;2022-09-14T08:38:23;2.80;;;2.60;;
2488;SDS011;1255;48.716;9.124;2022-09-14T08:40:50;2.60;;;2.40;;
2488;SDS011;1255;48.716;9.124;2022-09-14T08:43:17;3.30;;;3.03;;
2488;SDS011;1255;48.716;9.124;2022-09-14T08:45:47;3.63;;;3.00;;
2488;SDS011;1255;48.716;9.124;2022-09-14T08:48:19;4.13;;;3.07;;
2488;SDS011;1255;48.716;9.124;2022-09-14T08:50:50;3.33;;;3.03;;
2488;SDS011;1255;48.716;9.124;2022-09-14T08:53:18;3.20;;;2.90;;
2488;SDS011;1255;48.716;9.124;2022-09-14T08:55:47;2.70;;;2.50;;
2488;SDS011;1255;48.716;9.124;2022-09-14T08:58:18;3.73;;;2.83;;
2488;SDS011;1255;48.716;9.124;2022-09-14T09:00:54;2.50;;;2.30;;
2488;SDS011;1255;48.716;9.124;2022-09-14T09:03:31;3.70;;;2.90;;
2488;SDS011;1255;48.716;9.124;2022-09-14T09:06:14;2.97;;;2.77;;
2488;SDS011;1255;48.716;9.124;2022-09-14T09:08:46;3.23;;;2.93;;
2488;SDS011;1255;48.716;9.124;2022-09-14T09:11:20;2.93;;;2.57;;
2488;SDS011;1255;48.716;9.124;2022-09-14T09:13:51;2.77;;;2.57;;
2488;SDS011;1255;48.716;9.124;2022-09-14T09:16:22;4.97;;;2.87;;
2488;SDS011;1255;48.716;9.124;2022-09-14T09:18:51;3.73;;;2.67;;
2488;SDS011;1255;48.716;9.124;2022-09-14T09:21:24;2.37;;;2.17;;
2488;SDS011;1255;48.716;9.124;2022-09-14T09:23:54;2.93;;;2.63;;
2488;SDS011;1255;48.716;9.124;2022-09-14T09:26:21;3.23;;;2.90;;
2488;SDS011;1255;48.716;9.124;2022-09-14T09:28:55;2.57;;;2.37;;
2488;SDS011;1255;48.716;9.124;2022-09-14T09:31:28;2.50;;;2.30;;
2488;SDS011;1255;48.716;9.124;2022-09-14T09:33:58;3.93;;;2.60;;
2488;SDS011;1255;48.716;9.124;2022-09-14T09:36:26;2.63;;;2.33;;
2488;SDS011;1255;48.716;9.124;2022-09-14T09:39:00;2.70;;;2.50;;
2488;SDS011;1255;48.716;9.124;2022-09-14T09:41:28;3.00;;;2.67;;
2488;SDS011;1255;48.716;9.124;2022-09-14T09:44:01;2.90;;;2.27;;
2488;SDS011;1255;48.716;9.124;2022-09-14T09:46:32;2.60;;;2.40;;
2488;SDS011;1255;48.716;9.124;2022-09-14T09:49:03;2.40;;;2.20;;
2488;SDS011;1255;48.716;9.124;2022-09-14T09:51:40;2.93;;;2.63;;
2488;SDS011;1255;48.716;9.124;2022-09-14T09:54:11;2.47;;;2.23;;
2488;SDS011;1255;48.716;9.124;2022-09-14T09:56:50;3.70;;;2.60;;
2488;SDS011;1255;48.716;9.124;2022-09-14T09:59:21;2.23;;;2.03;;
2488;SDS011;1255;48.716;9.124;2022-09-14T10:01:55;2.47;;;2.27;;
2488;SDS011;1255;48.716;9.124;2022-09-14T10:04:38;2.90;;;2.53;;
2488;SDS011;1255;48.716;9.124;2022-09-14T10:07:21;2.40;;;2.30;;
2488;SDS011;1255;48.716;9.124;2022-09-14T10:09:55;3.17;;;2.77;;
2488;SDS011;1255;48.716;9.124;2022-09-14T10:12:23;2.60;;;2.40;;
2488;SDS011;1255;48.716;9.124;2022-09-14T10:14:59;2.30;;;2.20;;
2488;SDS011;1255;48.716;9.124;2022-09-14T10:17:56;2.93;;;2.73;;
2488;SDS011;1255;48.716;9.124;2022-09-14T10:20:41;2.70;;;2.50;;
2488;SDS011;1255;48.716;9.124;2022-09-14T10:23:14;2.47;;;2.20;;
2488;SDS011;1255;48.716;9.124;2022-09-14T10:25:49;3.10;;;2.80;;
2488;SDS011;1255;48.716;9.124;2022-09-14T10:28:21;2.70;;;2.07;;
2488;SDS011;1255;48.716;9.124;2022-09-14T10:30:50;2.50;;;2.30;;
2488;SDS011;1255;48.716;9.124;2022-09-14T10:33:23;2.70;;;2.50;;
2488;SDS011;1255;48.716;9.124;2022-09-14T10:35:51;2.87;;;2.37;;
2488;SDS011;1255;48.716;9.124;2022-09-14T10:38:27;2.60;;;2.40;;
2488;SDS011;1255;48.716;9.124;2022-09-14T10:41:00;4.07;;;2.57;;
2488;SDS011;1255;48.716;9.124;2022-09-14T10:43:48;2.93;;;2.10;;
2488;SDS011;1255;48.716;9.124;2022-09-14T10:46:33;3.20;;;2.30;;
2488;SDS011;1255;48.716;9.124;2022-09-14T10:49:12;4.33;;;2.33;;
2488;SDS011;1255;48.716;9.124;2022-09-14T10:51:51;2.67;;;2.33;;
2488;SDS011;1255;48.716;9.124;2022-09-14T10:54:40;2.67;;;2.47;;
2488;SDS011;1255;48.716;9.124;2022-09-14T10:57:24;3.27;;;2.60;;
2488;SDS011;1255;48.716;9.124;2022-09-14T11:00:00;2.70;;;2.50;;
2488;SDS011;1255;48.716;9.124;2022-09-14T11:02:54;3.00;;;2.43;;
2488;SDS011;1255;48.716;9.124;2022-09-14T11:05:32;2.40;;;2.10;;
2488;SDS011;1255;48.716;9.124;2022-09-14T11:08:11;2.20;;;2.00;;
2488;SDS011;1255;48.716;9.124;2022-09-14T11:10:51;3.67;;;2.40;;
2488;SDS011;1255;48.716;9.124;2022-09-14T11:13:45;3.30;;;3.00;;
2488;SDS011;1255;48.716;9.124;2022-09-14T11:16:40;3.40;;;2.70;;
2488;SDS011;1255;48.716;9.124;2022-09-14T11:19:29;3.70;;;2.60;;
2488;SDS011;1255;48.716;9.124;2022-09-14T11:22:07;1.77;;;1.67;;
2488;SDS011;1255;48.716;9.124;2022-09-14T11:24:39;2.17;;;2.07;;
2488;SDS011;1255;48.716;9.124;2022-09-14T11:27:10;3.17;;;2.47;;
2488;SDS011;1255;48.716;9.124;2022-09-14T11:29:43;2.33;;;2.13;;
2488;SDS011;1255;48.716;9.124;2022-09-14T11:32:16;3.00;;;2.13;;
2488;SDS011;1255;48.716;9.124;2022-09-14T11:34:48;3.00;;;2.07;;
2488;SDS011;1255;48.716;9.124;2022-09-14T11:37:24;1.70;;;1.60;;
2488;SDS011;1255;48.716;9.124;2022-09-14T11:39:58;2.73;;;2.10;;
2488;SDS011;1255;48.716;9.124;2022-09-14T11:42:31;2.40;;;2.20;;
2488;SDS011;1255;48.716;9.124;2022-09-14T11:45:01;3.70;;;2.20;;
2488;SDS011;1255;48.716;9.124;2022-09-14T11:47:33;2.30;;;1.53;;
2488;SDS011;1255;48.716;9.124;2022-09-14T11:50:05;3.27;;;2.10;;
2488;SDS011;1255;48.716;9.124;2022-09-14T11:52:43;2.73;;;1.80;;
2488;SDS011;1255;48.716;9.124;2022-09-14T11:55:16;4.07;;;1.60;;
2488;SDS011;1255;48.716;9.124;2022-09-14T11:57:44;2.17;;;1.97;;
2488;SDS011;1255;48.716;9.124;2022-09-14T12:03:14;2.47;;;2.27;;
2488;SDS011;1255;48.716;9.124;2022-09-14T12:05:42;2.00;;;1.80;;
2488;SDS011;1255;48.716;9.124;2022-09-14T12:11:23;2.00;;;1.80;;
2488;SDS011;1255;48.716;9.124;2022-09-14T12:14:11;3.20;;;2.23;;
2488;SDS011;1255;48.716;9.124;2022-09-14T12:17:14;3.00;;;2.20;;
2488;SDS011;1255;48.716;9.124;2022-09-14T12:19:43;1.90;;;1.80;;
2488;SDS011;1255;48.716;9.124;2022-09-14T12:22:26;3.33;;;2.47;;
2488;SDS011;1255;48.716;9.124;2022-09-14T12:24:57;1.90;;;1.70;;
2488;SDS011;1255;48.716;9.124;2022-09-14T12:27:28;3.87;;;2.40;;
2488;SDS011;1255;48.716;9.124;2022-09-14T12:29:56;4.27;;;2.63;;
2488;SDS011;1255;48.716;9.124;2022-09-14T12:32:24;2.63;;;1.97;;
2488;SDS011;1255;48.716;9.124;2022-09-14T12:37:57;2.40;;;2.20;;
2488;SDS011;1255;48.716;9.124;2022-09-14T12:40:32;2.10;;;1.90;;
2488;SDS011;1255;48.716;9.124;2022-09-14T12:49:14;1.53;;;1.43;;
2488;SDS011;1255;48.716;9.124;2022-09-14T12:51:50;1.93;;;1.60;;
2488;SDS011;1255;48.716;9.124;2022-09-14T12:54:23;2.70;;;1.80;;
2488;SDS011;1255;48.716;9.124;2022-09-14T12:57:00;2.10;;;1.83;;
2488;SDS011;1255;48.716;9.124;2022-09-14T12:59:41;3.30;;;2.30;;
2488;SDS011;1255;48.716;9.124;2022-09-14T13:02:26;3.73;;;2.10;;
2488;SDS011;1255;48.716;9.124;2022-09-14T13:05:15;2.40;;;2.20;;
2488;SDS011;1255;48.716;9.124;2022-09-14T13:07:46;3.73;;;2.37;;
2488;SDS011;1255;48.716;9.124;2022-09-14T13:10:16;2.13;;;1.90;;
2488;SDS011;1255;48.716;9.124;2022-09-14T13:12:46;2.50;;;2.30;;
2488;SDS011;1255;48.716;9.124;2022-09-14T13:15:17;5.97;;;2.37;;
2488;SDS011;1255;48.716;9.124;2022-09-14T13:18:00;2.93;;;2.60;;
2488;SDS011;1255;48.716;9.124;2022-09-14T13:20:29;3.43;;;2.50;;
2488;SDS011;1255;48.716;9.124;2022-09-14T13:22:57;2.63;;;2.40;;
2488;SDS011;1255;48.716;9.124;2022-09-14T13:25:26;2.40;;;2.20;;
2488;SDS011;1255;48.716;9.124;2022-09-14T13:27:57;2.53;;;2.33;;
2488;SDS011;1255;48.716;9.124;2022-09-14T13:30:26;2.23;;;1.90;;
2488;SDS011;1255;48.716;9.124;2022-09-14T13:32:55;2.50;;;2.10;;
2488;SDS011;1255;48.716;9.124;2022-09-14T13:35:26;3.50;;;2.27;;
2488;SDS011;1255;48.716;9.124;2022-09-14T13:37:56;2.20;;;1.90;;
2488;SDS011;1255;48.716;9.124;2022-09-14T13:40:26;2.03;;;1.83;;
2488;SDS011;1255;48.716;9.124;2022-09-14T13:42:55;2.30;;;1.80;;
2488;SDS011;1255;48.716;9.124;2022-09-14T13:45:24;2.43;;;1.90;;
2488;SDS011;1255;48.716;9.124;2022-09-14T13:47:52;2.50;;;2.10;;
2488;SDS011;1255;48.716;9.124;2022-09-14T13:50:20;2.97;;;1.87;;
2488;SDS011;1255;48.716;9.124;2022-09-14T13:52:49;2.30;;;1.70;;
2488;SDS011;1255;48.716;9.124;2022-09-14T13:55:21;3.33;;;1.50;;
2488;SDS011;1255;48.716;9.124;2022-09-14T13:58:06;3.27;;;2.10;;
2488;SDS011;1255;48.716;9.124;2022-09-14T14:00:54;3.10;;;1.70;;
2488;SDS011;1255;48.716;9.124;2022-09-14T14:03:24;1.60;;;1.50;;
2488;SDS011;1255;48.716;9.124;2022-09-14T14:05:54;1.80;;;1.60;;
2488;SDS011;1255;48.716;9.124;2022-09-14T14:08:25;2.13;;;1.97;;
2488;SDS011;1255;48.716;9.124;2022-09-14T14:10:55;2.80;;;1.63;;
2488;SDS011;1255;48.716;9.124;2022-09-14T14:13:23;1.53;;;1.43;;
2488;SDS011;1255;48.716;9.124;2022-09-14T14:15:50;3.50;;;2.50;;
2488;SDS011;1255;48.716;9.124;2022-09-14T14:18:39;1.53;;;1.40;;
2488;SDS011;1255;48.716;9.124;2022-09-14T14:21:24;1.80;;;1.60;;
2488;SDS011;1255;48.716;9.124;2022-09-14T14:23:53;2.33;;;1.77;;
2488;SDS011;1255;48.716;9.124;2022-09-14T14:26:49;3.33;;;1.63;;
2488;SDS011;1255;48.716;9.124;2022-09-14T14:29:17;1.60;;;1.50;;
2488;SDS011;1255;48.716;9.124;2022-09-14T14:31:44;1.63;;;1.53;;
2488;SDS011;1255;48.716;9.124;2022-09-14T14:34:17;1.70;;;1.60;;
2488;SDS011;1255;48.716;9.124;2022-09-14T14:36:46;2.27;;;1.53;;
2488;SDS011;1255;48.716;9.124;2022-09-14T14:39:14;1.73;;;1.60;;
2488;SDS011;1255;48.716;9.124;2022-09-14T14:41:42;1.57;;;1.47;;
2488;SDS011;1255;48.716;9.124;2022-09-14T14:44:10;2.10;;;1.87;;
2488;SDS011;1255;48.716;9.124;2022-09-14T14:46:41;2.07;;;1.47;;
2488;SDS011;1255;48.716;9.124;2022-09-14T14:49:09;1.80;;;1.33;;
2488;SDS011;1255;48.716;9.124;2022-09-14T14:51:38;1.67;;;1.30;;
2488;SDS011;1255;48.716;9.124;2022-09-14T14:54:05;1.30;;;1.20;;
2488;SDS011;1255;48.716;9.124;2022-09-14T14:56:32;1.30;;;1.20;;
2488;SDS011;1255;48.716;9.124;2022-09-14T14:58:58;1.27;;;1.17;;
2488;SDS011;1255;48.716;9.124;2022-09-14T15:01:25;1.47;;;1.30;;
2488;SDS011;1255;48.716;9.124;2022-09-14T15:03:52;1.53;;;1.40;;
2488;SDS011;1255;48.716;9.124;2022-09-14T15:06:19;2.60;;;1.17;;
2488;SDS011;1255;48.716;9.124;2022-09-14T15:08:52;2.53;;;1.73;;
2488;SDS011;1255;48.716;9.124;2022-09-14T15:11:19;1.27;;;1.17;;
2488;SDS011;1255;48.716;9.124;2022-09-14T15:13:46;2.30;;;1.30;;
2488;SDS011;1255;48.716;9.124;2022-09-14T15:16:14;1.63;;;1.33;;
2488;SDS011;1255;48.716;9.124;2022-09-14T15:18:41;1.77;;;1.20;;
2488;SDS011;1255;48.716;9.124;2022-09-14T15:21:08;1.70;;;1.23;;
2488;SDS011;1255;48.716;9.124;2022-09-14T15:23:35;1.83;;;1.33;;
2488;SDS011;1255;48.716;9.124;2022-09-14T15:26:03;2.10;;;1.07;;
2488;SDS011;1255;48.716;9.124;2022-09-14T15:28:30;1.20;;;1.00;;
2488;SDS011;1255;48.716;9.124;2022-09-14T15:30:59;1.10;;;1.00;;
2488;SDS011;1255;48.716;9.124;2022-09-14T15:33:26;1.50;;;1.20;;
2488;SDS011;1255;48.716;9.124;2022-09-14T15:35:53;1.50;;;1.00;;
2488;SDS011;1255;48.716;9.124;2022-09-14T15:38:21;1.30;;;1.20;;
2488;SDS011;1255;48.716;9.124;2022-09-14T15:40:48;2.00;;;1.33;;
2488;SDS011;1255;48.716;9.124;2022-09-14T15:43:16;1.60;;;1.10;;
2488;SDS011;1255;48.716;9.124;2022-09-14T15:45:42;1.40;;;1.30;;
2488;SDS011;1255;48.716;9.124;2022-09-14T15:48:10;1.53;;;1.20;;
2488;SDS011;1255;48.716;9.124;2022-09-14T15:50:39;1.37;;;1.23;;
2488;SDS011;1255;48.716;9.124;2022-09-14T15:53:07;1.77;;;1.23;;
2488;SDS011;1255;48.716;9.124;2022-09-14T15:55:36;1.50;;;1.20;;